Time;durP1;ratioP1;P1;durP2;ratioP2;P2;SDS_P1;SDS_P2;PMS_P1;PMS_P2;Temp;Humidity;BMP_temperature;BMP_pressure;BME280_temperature;BME280_humidity;BME280_pressure;Samples;Min_cycle;Max_cycle;Signal;HPM_P1;HPM_P2
2022/04/14 00:00:13;;;;;;;12.35;6.82;;;12.80;99.90;;;;;;5064539;28;38540;-58
2022/04/14 00:02:40;;;;;;;12.18;7.30;;;12.80;99.90;;;;;;5063511;28;36673;-59
2022/04/14 00:05:09;;;;;;;13.13;7.68;;;12.80;99.90;;;;;;5062510;28;36945;-52
2022/04/14 00:07:39;;;;;;;14.27;6.68;;;12.70;99.90;;;;;;5062306;28;40120;-53
2022/04/14 00:10:07;;;;;;;12.73;7.30;;;12.70;99.90;;;;;;5060255;28;38240;-52
2022/04/14 00:12:35;;;;;;;10.07;7.10;;;12.80;99.90;;;;;;5060722;28;36614;-53
2022/04/14 00:15:04;;;;;;;10.60;6.68;;;12.80;99.90;;;;;;5063043;28;37324;-54
2022/04/14 00:17:33;;;;;;;14.75;7.88;;;12.80;99.90;;;;;;5062220;28;37481;-53
2022/04/14 00:20:01;;;;;;;15.95;8.27;;;12.80;99.90;;;;;;5062759;28;38997;-54
2022/04/14 00:22:28;;;;;;;18.10;8.40;;;12.80;99.90;;;;;;5061148;28;37183;-53
2022/04/14 00:24:58;;;;;;;14.15;8.90;;;12.80;99.90;;;;;;5064455;28;37672;-52
2022/04/14 00:27:25;;;;;;;15.48;8.75;;;12.80;99.90;;;;;;5062222;28;39158;-53
2022/04/14 00:29:53;;;;;;;14.10;7.78;;;12.80;99.90;;;;;;5064485;28;38783;-53
2022/04/14 00:32:20;;;;;;;12.40;7.97;;;12.70;99.90;;;;;;5062394;28;37728;-59
2022/04/14 00:34:49;;;;;;;14.57;9.05;;;12.70;99.90;;;;;;5063631;28;36381;-58
2022/04/14 00:37:17;;;;;;;12.70;7.07;;;12.70;99.90;;;;;;5061455;28;36416;-59
2022/04/14 00:39:45;;;;;;;13.20;8.38;;;12.70;99.90;;;;;;5061896;28;37322;-59
2022/04/14 00:42:13;;;;;;;13.68;8.10;;;12.60;99.90;;;;;;5062528;28;39346;-59
2022/04/14 00:44:43;;;;;;;12.00;8.00;;;12.60;99.90;;;;;;5063265;28;36169;-58
2022/04/14 00:47:12;;;;;;;13.68;7.95;;;12.60;99.90;;;;;;5063220;28;39344;-59
2022/04/14 00:49:40;;;;;;;12.07;8.60;;;12.60;99.90;;;;;;5063676;28;38506;-59
2022/04/14 00:52:10;;;;;;;13.65;8.38;;;12.50;99.90;;;;;;5062089;28;38597;-58
2022/04/14 00:54:37;;;;;;;15.55;8.60;;;12.50;99.90;;;;;;5063128;28;36604;-59
2022/04/14 00:57:05;;;;;;;15.45;8.30;;;12.50;99.90;;;;;;5062900;28;37937;-59
2022/04/14 00:59:33;;;;;;;16.92;8.40;;;12.40;99.90;;;;;;5064515;28;40766;-59
2022/04/14 01:02:01;;;;;;;14.07;8.68;;;12.40;99.90;;;;;;5062835;28;38740;-59
2022/04/14 01:04:29;;;;;;;14.15;8.23;;;12.30;99.90;;;;;;5063802;28;36367;-59
2022/04/14 01:06:56;;;;;;;13.20;8.25;;;12.30;99.90;;;;;;5061213;28;38856;-59
2022/04/14 01:09:28;;;;;;;12.82;8.75;;;12.30;99.90;;;;;;5063155;28;37119;-59
2022/04/14 01:11:57;;;;;;;14.52;8.65;;;12.30;99.90;;;;;;5062413;28;37739;-59
2022/04/14 01:14:28;;;;;;;17.23;9.07;;;12.20;99.90;;;;;;5062842;28;35255;-59
2022/04/14 01:16:56;;;;;;;17.88;9.82;;;12.20;99.90;;;;;;5062454;28;36456;-59
2022/04/14 01:19:24;;;;;;;12.85;7.78;;;12.20;99.90;;;;;;5063332;28;38654;-58
2022/04/14 01:21:58;;;;;;;14.00;8.07;;;12.10;99.90;;;;;;5062423;28;38989;-59
2022/04/14 01:24:27;;;;;;;12.80;8.02;;;12.10;99.90;;;;;;5062457;28;36227;-59
2022/04/14 01:26:55;;;;;;;15.98;9.02;;;12.10;99.90;;;;;;5061656;28;38397;-58
2022/04/14 01:29:24;;;;;;;15.02;9.15;;;12.00;99.90;;;;;;5063123;28;38277;-59
2022/04/14 01:31:52;;;;;;;12.00;8.23;;;12.00;99.90;;;;;;5062515;28;38552;-58
2022/04/14 01:34:20;;;;;;;16.05;9.07;;;12.00;99.90;;;;;;5062008;28;36652;-59
2022/04/14 01:36:48;;;;;;;19.25;9.52;;;11.90;99.90;;;;;;5062617;28;38020;-58
2022/04/14 01:39:15;;;;;;;15.07;9.10;;;11.90;99.90;;;;;;5062584;28;37672;-59
2022/04/14 01:41:44;;;;;;;18.35;10.00;;;11.80;99.90;;;;;;5063443;28;38599;-53
2022/04/14 01:44:12;;;;;;;13.27;9.07;;;11.80;99.90;;;;;;5063173;28;36298;-53
2022/04/14 01:46:41;;;;;;;17.85;9.85;;;11.80;99.90;;;;;;5063468;28;40021;-53
2022/04/14 01:49:09;;;;;;;14.95;9.70;;;11.80;99.90;;;;;;5063409;28;38161;-52
2022/04/14 01:51:36;;;;;;;17.40;9.60;;;11.80;99.90;;;;;;5062097;28;37950;-58
2022/04/14 01:54:07;;;;;;;15.52;10.18;;;11.80;99.90;;;;;;5062322;28;36543;-58
2022/04/14 01:56:34;;;;;;;16.45;10.57;;;11.80;99.90;;;;;;5062194;28;36284;-58
2022/04/14 01:59:03;;;;;;;14.52;8.95;;;11.70;99.90;;;;;;5063370;28;39148;-59
2022/04/14 02:01:30;;;;;;;15.88;10.75;;;11.70;99.90;;;;;;5062484;28;37218;-59
2022/04/14 02:04:02;;;;;;;16.60;11.02;;;11.70;99.90;;;;;;5063186;28;38140;-50
2022/04/14 02:06:29;;;;;;;16.10;11.00;;;11.70;99.90;;;;;;5062372;28;38342;-51
2022/04/14 02:08:57;;;;;;;16.58;10.40;;;11.60;99.90;;;;;;5062493;28;37797;-58
2022/04/14 02:11:24;;;;;;;16.88;10.93;;;11.60;99.90;;;;;;5062305;28;37796;-59
2022/04/14 02:13:52;;;;;;;17.92;11.05;;;11.60;99.90;;;;;;5062258;28;37397;-58
2022/04/14 02:16:23;;;;;;;18.50;11.80;;;11.60;99.90;;;;;;5062102;28;36233;-58
2022/04/14 02:18:51;;;;;;;18.20;11.52;;;11.60;99.90;;;;;;5061565;28;37224;-52
2022/04/14 02:21:18;;;;;;;15.57;11.45;;;11.50;99.90;;;;;;5062895;28;38959;-53
2022/04/14 02:23:48;;;;;;;15.38;10.75;;;11.50;99.90;;;;;;5062532;28;36334;-52
2022/04/14 02:26:16;;;;;;;20.65;11.98;;;11.40;99.90;;;;;;5060315;28;38756;-59
2022/04/14 02:28:44;;;;;;;18.35;11.90;;;11.40;99.90;;;;;;5061722;28;39744;-59
2022/04/14 02:31:12;;;;;;;20.67;12.57;;;11.40;99.90;;;;;;5062515;28;37880;-59
2022/04/14 02:33:41;;;;;;;18.50;11.90;;;11.40;99.90;;;;;;5061367;28;39443;-59
2022/04/14 02:36:08;;;;;;;19.27;12.43;;;11.40;99.90;;;;;;5062660;28;37808;-52
2022/04/14 02:38:36;;;;;;;20.33;11.55;;;11.40;99.90;;;;;;5062059;28;37793;-52
2022/04/14 02:41:03;;;;;;;22.17;12.27;;;11.30;99.90;;;;;;5060393;28;38184;-51
2022/04/14 02:43:31;;;;;;;17.55;12.00;;;11.30;99.90;;;;;;5060633;28;37401;-52
2022/04/14 02:45:59;;;;;;;22.33;12.82;;;11.30;99.90;;;;;;5061339;28;39021;-53
2022/04/14 02:48:27;;;;;;;21.75;13.10;;;11.30;99.90;;;;;;5060618;28;37971;-53
2022/04/14 02:50:56;;;;;;;22.00;12.98;;;11.30;99.90;;;;;;5060382;28;37113;-52
2022/04/14 02:53:24;;;;;;;18.83;12.23;;;11.20;99.90;;;;;;5061592;28;36664;-53
2022/04/14 02:55:52;;;;;;;18.30;12.65;;;11.20;99.90;;;;;;5062563;28;37515;-53
2022/04/14 02:58:22;;;;;;;19.27;13.05;;;11.20;99.90;;;;;;5061641;28;38565;-53
2022/04/14 03:00:50;;;;;;;26.38;14.63;;;11.20;99.90;;;;;;5062295;28;36654;-53
2022/04/14 03:03:17;;;;;;;19.58;12.77;;;11.20;99.90;;;;;;5065629;28;36429;-52
2022/04/14 03:05:45;;;;;;;20.80;14.10;;;11.10;99.90;;;;;;5065073;28;37434;-53
2022/04/14 03:08:13;;;;;;;22.27;14.70;;;11.10;99.90;;;;;;5064906;28;40058;-59
2022/04/14 03:10:41;;;;;;;19.83;13.90;;;11.10;99.90;;;;;;5064985;28;38735;-58
2022/04/14 03:13:08;;;;;;;21.08;13.82;;;11.10;99.90;;;;;;5065955;28;38304;-58
2022/04/14 03:15:35;;;;;;;17.60;12.77;;;11.00;99.90;;;;;;5066100;28;37751;-58
2022/04/14 03:18:03;;;;;;;25.13;15.52;;;10.90;99.90;;;;;;5064456;28;37157;-58
2022/04/14 03:20:30;;;;;;;20.13;12.70;;;10.90;99.90;;;;;;5065513;28;37842;-58
2022/04/14 03:22:58;;;;;;;20.90;14.07;;;10.90;99.90;;;;;;5065362;28;38293;-58
2022/04/14 03:25:27;;;;;;;23.45;14.50;;;10.90;99.90;;;;;;5065625;28;36673;-52
2022/04/14 03:27:57;;;;;;;19.75;14.15;;;10.80;99.90;;;;;;5062480;28;38280;-51
2022/04/14 03:30:25;;;;;;;21.52;15.13;;;10.80;99.90;;;;;;5065784;28;38010;-58
2022/04/14 03:32:52;;;;;;;21.30;15.23;;;10.80;99.90;;;;;;5065416;28;36310;-57
2022/04/14 03:35:19;;;;;;;21.27;13.93;;;10.70;99.90;;;;;;5066019;28;36303;-58
2022/04/14 03:37:49;;;;;;;22.35;14.65;;;10.60;99.90;;;;;;5065130;28;42549;-58
2022/04/14 03:40:17;;;;;;;21.67;14.52;;;10.60;99.90;;;;;;5063644;28;38593;-52
2022/04/14 03:42:46;;;;;;;22.27;14.65;;;10.60;99.90;;;;;;5065304;28;34943;-51
2022/04/14 03:45:14;;;;;;;24.40;15.13;;;10.60;99.90;;;;;;5065281;28;36472;-52
2022/04/14 03:47:41;;;;;;;21.67;15.00;;;10.60;99.90;;;;;;5066199;28;37697;-52
2022/04/14 03:50:09;;;;;;;23.52;14.10;;;10.60;99.90;;;;;;5065088;28;38185;-52
2022/04/14 03:52:36;;;;;;;22.10;15.02;;;10.60;99.90;;;;;;5064568;28;35617;-52
2022/04/14 03:55:05;;;;;;;20.45;15.73;;;10.60;99.90;;;;;;5065357;28;37605;-58
2022/04/14 03:57:32;;;;;;;21.95;15.18;;;10.60;99.90;;;;;;5064926;28;39325;-58
2022/04/14 04:00:01;;;;;;;23.95;16.23;;;10.70;99.90;;;;;;5065457;28;37766;-58
2022/04/14 04:02:29;;;;;;;22.17;16.13;;;10.70;99.90;;;;;;5064961;28;38595;-58
2022/04/14 04:04:57;;;;;;;23.27;15.23;;;10.60;99.90;;;;;;5064199;28;37534;-52
2022/04/14 04:07:24;;;;;;;25.13;15.77;;;10.60;99.90;;;;;;5063960;28;37104;-51
2022/04/14 04:09:51;;;;;;;23.75;14.68;;;10.60;99.90;;;;;;5063240;28;40266;-51
2022/04/14 04:12:21;;;;;;;23.40;15.82;;;10.60;99.90;;;;;;5062501;28;36719;-51
2022/04/14 04:14:49;;;;;;;21.30;14.52;;;10.60;99.90;;;;;;5062551;28;38024;-58
2022/04/14 04:17:18;;;;;;;24.27;16.05;;;10.60;99.90;;;;;;5064001;28;39893;-58
2022/04/14 04:19:45;;;;;;;26.45;16.50;;;10.50;99.90;;;;;;5062500;28;37681;-58
2022/04/14 04:22:13;;;;;;;22.88;15.75;;;10.50;99.90;;;;;;5061692;28;37074;-58
2022/04/14 04:24:40;;;;;;;23.92;15.63;;;10.60;99.90;;;;;;5062352;28;38268;-58
2022/04/14 04:27:08;;;;;;;30.08;15.50;;;10.60;99.90;;;;;;5062901;28;38232;-59
2022/04/14 04:29:36;;;;;;;26.50;17.02;;;10.50;99.90;;;;;;5062470;28;37713;-58
2022/04/14 04:32:03;;;;;;;22.13;14.52;;;10.50;99.90;;;;;;5062899;28;37445;-58
2022/04/14 04:34:32;;;;;;;24.05;15.55;;;10.50;99.90;;;;;;5062634;28;37308;-58
2022/04/14 04:36:59;;;;;;;23.48;16.50;;;10.50;99.90;;;;;;5061952;28;41881;-58
2022/04/14 04:39:26;;;;;;;25.35;17.15;;;10.50;99.90;;;;;;5062042;28;37508;-58
2022/04/14 04:41:54;;;;;;;24.90;17.15;;;10.50;99.90;;;;;;5062571;28;35691;-58
2022/04/14 04:44:21;;;;;;;21.35;15.90;;;10.40;99.90;;;;;;5062755;28;38437;-58
2022/04/14 04:46:48;;;;;;;23.80;16.40;;;10.40;99.90;;;;;;5062309;28;38252;-58
2022/04/14 04:49:16;;;;;;;20.92;15.82;;;10.40;99.90;;;;;;5062846;28;38016;-58
2022/04/14 04:51:44;;;;;;;26.20;16.88;;;10.40;99.90;;;;;;5062477;28;36655;-58
2022/04/14 04:54:12;;;;;;;22.30;15.00;;;10.40;99.90;;;;;;5063143;28;38880;-57
2022/04/14 04:56:39;;;;;;;26.48;16.98;;;10.40;99.90;;;;;;5062229;28;38971;-58
2022/04/14 04:59:08;;;;;;;25.27;16.25;;;10.40;99.90;;;;;;5063539;28;36611;-58
2022/04/14 05:01:35;;;;;;;23.40;16.50;;;10.40;99.90;;;;;;5061674;28;37277;-57
2022/04/14 05:04:03;;;;;;;26.92;17.00;;;10.30;99.90;;;;;;5063358;28;37546;-57
2022/04/14 05:06:30;;;;;;;23.83;16.95;;;10.30;99.90;;;;;;5063264;28;38004;-58
2022/04/14 05:09:00;;;;;;;22.98;16.73;;;10.40;99.90;;;;;;5062881;28;37699;-58
2022/04/14 05:11:27;;;;;;;25.17;17.08;;;10.40;99.90;;;;;;5061733;28;37743;-57
2022/04/14 05:13:55;;;;;;;26.98;17.73;;;10.40;99.90;;;;;;5062610;28;39774;-58
2022/04/14 05:16:22;;;;;;;26.40;17.90;;;10.50;99.90;;;;;;5061436;28;38681;-58
2022/04/14 05:18:50;;;;;;;27.13;18.25;;;10.50;99.90;;;;;;5061630;28;36675;-57
2022/04/14 05:21:17;;;;;;;28.50;17.88;;;10.60;99.90;;;;;;5063368;28;38384;-57
2022/04/14 05:23:45;;;;;;;24.58;17.88;;;10.80;99.90;;;;;;5063100;28;38773;-58
2022/04/14 05:26:14;;;;;;;26.50;19.55;;;11.00;99.90;;;;;;5060399;28;38679;-58
2022/04/14 05:28:41;;;;;;;29.08;19.58;;;11.20;99.90;;;;;;5063918;28;37938;-52
2022/04/14 05:31:09;;;;;;;30.90;20.05;;;11.60;99.90;;;;;;5063280;28;36602;-51
2022/04/14 05:33:36;;;;;;;28.33;19.83;;;11.90;99.90;;;;;;5063786;28;37036;-52
2022/04/14 05:36:04;;;;;;;33.40;20.77;;;12.20;99.90;;;;;;5063645;28;38407;-58
2022/04/14 05:38:32;;;;;;;26.10;19.58;;;12.40;99.90;;;;;;5061861;28;40007;-51
2022/04/14 05:40:59;;;;;;;27.52;19.95;;;12.70;99.90;;;;;;5061980;28;36494;-52
2022/04/14 05:43:29;;;;;;;29.95;20.35;;;12.80;99.90;;;;;;5063176;28;39182;-51
2022/04/14 05:45:57;;;;;;;26.00;19.20;;;12.60;99.90;;;;;;5062063;28;38203;-49
2022/04/14 05:48:24;;;;;;;32.13;19.48;;;12.50;99.90;;;;;;5063681;28;37373;-52
2022/04/14 05:50:52;;;;;;;30.67;19.98;;;12.40;99.90;;;;;;5063514;28;36799;-51
2022/04/14 05:53:25;;;;;;;29.63;19.48;;;12.50;99.90;;;;;;5063079;28;37339;-52
2022/04/14 05:55:52;;;;;;;27.55;18.90;;;12.80;99.90;;;;;;5063491;28;38926;-58
2022/04/14 05:58:19;;;;;;;28.17;18.90;;;13.00;99.90;;;;;;5062510;28;37534;-57
2022/04/14 06:00:48;;;;;;;29.42;19.48;;;13.00;99.90;;;;;;5063163;28;36750;-58
2022/04/14 06:03:16;;;;;;;26.63;18.63;;;13.00;99.90;;;;;;5060115;28;38312;-58
2022/04/14 06:05:44;;;;;;;26.67;18.27;;;13.10;99.90;;;;;;5060381;28;37781;-58
2022/04/14 06:08:11;;;;;;;31.88;19.55;;;13.20;99.90;;;;;;5060919;28;37526;-57
2022/04/14 06:10:39;;;;;;;29.00;20.25;;;13.40;99.90;;;;;;5060089;28;35537;-57
2022/04/14 06:13:06;;;;;;;29.85;19.77;;;13.70;99.90;;;;;;5060839;28;38014;-57
2022/04/14 06:15:33;;;;;;;29.92;19.98;;;14.30;99.90;;;;;;5061649;28;38816;-57
2022/04/14 06:18:02;;;;;;;24.95;17.17;;;14.90;98.60;;;;;;5060066;28;36878;-58
2022/04/14 06:20:31;;;;;;;26.48;18.27;;;15.70;97.00;;;;;;5061481;28;35102;-57
2022/04/14 06:22:59;;;;;;;26.10;17.38;;;15.90;95.50;;;;;;5060880;28;38311;-58
2022/04/14 06:25:27;;;;;;;27.30;19.27;;;15.50;95.10;;;;;;5061715;28;38365;-58
2022/04/14 06:27:56;;;;;;;23.63;18.00;;;15.00;95.50;;;;;;5059654;28;38306;-57
2022/04/14 06:30:26;;;;;;;29.42;18.30;;;14.60;95.90;;;;;;5061397;28;38821;-57
2022/04/14 06:32:58;;;;;;;25.20;17.80;;;14.40;96.80;;;;;;5062868;28;37426;-58
2022/04/14 06:35:28;;;;;;;23.75;17.50;;;14.60;97.70;;;;;;5063875;28;38118;-58
2022/04/14 06:37:56;;;;;;;25.40;17.75;;;14.90;97.60;;;;;;5067621;28;36661;-57
2022/04/14 06:40:24;;;;;;;26.30;18.13;;;15.30;97.30;;;;;;5070463;28;36173;-57
2022/04/14 06:42:51;;;;;;;26.00;18.45;;;15.50;96.90;;;;;;5066090;28;38684;-58
2022/04/14 06:45:19;;;;;;;26.70;19.02;;;15.70;96.10;;;;;;5070523;28;37924;-52
2022/04/14 06:47:46;;;;;;;25.30;17.00;;;15.80;95.60;;;;;;5069328;28;36681;-58
2022/04/14 06:50:14;;;;;;;27.38;18.88;;;15.70;95.90;;;;;;5068097;28;36698;-52
2022/04/14 06:52:42;;;;;;;25.25;18.08;;;15.70;96.20;;;;;;5070332;28;37491;-52
2022/04/14 06:55:10;;;;;;;23.58;16.50;;;15.70;96.10;;;;;;5069750;28;40052;-51
2022/04/14 06:57:38;;;;;;;20.90;15.90;;;15.60;96.00;;;;;;5067419;28;37677;-52
2022/04/14 07:00:10;;;;;;;24.30;16.33;;;15.60;96.30;;;;;;5069481;28;36860;-50
2022/04/14 07:02:46;;;;;;;22.23;15.40;;;15.70;96.20;;;;;;5068196;28;36349;-51
2022/04/14 07:05:13;;;;;;;21.17;15.55;;;15.80;95.80;;;;;;5067717;28;38935;-52
2022/04/14 07:07:42;;;;;;;20.25;14.43;;;15.90;95.90;;;;;;5068285;28;38322;-52
2022/04/14 07:10:10;;;;;;;23.38;16.50;;;15.90;95.90;;;;;;5068425;28;36938;-51
2022/04/14 07:12:38;;;;;;;20.67;15.50;;;15.90;95.80;;;;;;5068479;28;36300;-52
2022/04/14 07:15:06;;;;;;;22.05;14.73;;;15.90;95.90;;;;;;5069146;28;36816;-52
2022/04/14 07:17:34;;;;;;;22.25;16.15;;;15.90;96.30;;;;;;5069503;28;38891;-50
2022/04/14 07:20:03;;;;;;;19.83;14.90;;;16.00;96.10;;;;;;5068723;28;37487;-57
2022/04/14 07:22:32;;;;;;;20.08;15.20;;;15.90;95.90;;;;;;5069746;28;39760;-58
2022/04/14 07:25:00;;;;;;;21.13;15.45;;;16.00;96.10;;;;;;5065650;28;37626;-57
2022/04/14 07:27:28;;;;;;;23.13;16.10;;;16.10;96.10;;;;;;5067689;28;37463;-58
2022/04/14 07:29:56;;;;;;;22.52;15.80;;;16.20;95.80;;;;;;5067727;28;36794;-58
2022/04/14 07:32:23;;;;;;;24.73;16.70;;;16.20;95.60;;;;;;5067523;28;37477;-57
2022/04/14 07:34:51;;;;;;;23.80;17.20;;;16.30;95.70;;;;;;5066552;28;39080;-58
2022/04/14 07:37:18;;;;;;;24.80;17.33;;;16.40;95.60;;;;;;5069265;28;37817;-58
2022/04/14 07:39:46;;;;;;;23.30;16.30;;;16.50;95.20;;;;;;5068682;28;36860;-58
2022/04/14 07:42:15;;;;;;;22.77;16.45;;;16.60;95.30;;;;;;5068602;28;38552;-58
2022/04/14 07:44:42;;;;;;;23.60;17.08;;;16.80;95.30;;;;;;5069747;28;36977;-58
2022/04/14 07:47:10;;;;;;;22.48;15.88;;;16.90;94.50;;;;;;5068824;28;38812;-58
2022/04/14 07:49:37;;;;;;;22.95;16.83;;;17.20;93.80;;;;;;5066498;28;37212;-58
2022/04/14 07:52:06;;;;;;;21.60;15.63;;;17.60;93.00;;;;;;5065876;28;36611;-57
2022/04/14 07:54:37;;;;;;;21.35;15.00;;;18.10;92.00;;;;;;5065594;28;38978;-58
2022/04/14 07:57:04;;;;;;;19.92;15.15;;;18.50;90.90;;;;;;5064660;28;37480;-52
2022/04/14 07:59:33;;;;;;;19.13;14.73;;;18.70;89.40;;;;;;5065514;28;36975;-53
2022/04/14 08:02:01;;;;;;;23.77;15.52;;;18.70;88.40;;;;;;5065328;28;36944;-53
2022/04/14 08:04:30;;;;;;;19.92;13.63;;;18.70;88.80;;;;;;5063848;28;38374;-50
2022/04/14 08:06:58;;;;;;;21.75;14.73;;;18.60;89.50;;;;;;5064591;28;37761;-53
2022/04/14 08:09:26;;;;;;;20.27;14.07;;;18.60;89.20;;;;;;5065382;28;37308;-53
2022/04/14 08:11:55;;;;;;;20.73;14.45;;;18.50;88.10;;;;;;5064687;28;37572;-53
2022/04/14 08:14:22;;;;;;;17.95;14.18;;;18.60;89.10;;;;;;5065088;28;37253;-52
2022/04/14 08:16:54;;;;;;;19.27;14.10;;;18.60;87.70;;;;;;5064318;28;36548;-52
2022/04/14 08:19:21;;;;;;;17.98;13.32;;;18.70;87.30;;;;;;5064469;28;35787;-57
2022/04/14 08:21:48;;;;;;;16.80;13.55;;;18.80;86.80;;;;;;5065293;28;37423;-58
2022/04/14 08:24:15;;;;;;;18.13;13.50;;;18.70;85.50;;;;;;5065209;28;36866;-57
2022/04/14 08:26:45;;;;;;;18.08;14.25;;;19.00;86.20;;;;;;5065931;28;37421;-52
2022/04/14 08:29:13;;;;;;;19.70;14.05;;;19.20;85.30;;;;;;5063606;28;37620;-52
2022/04/14 08:31:40;;;;;;;18.60;14.02;;;19.40;83.70;;;;;;5063378;28;37204;-52
2022/04/14 08:34:09;;;;;;;16.60;13.07;;;19.70;82.00;;;;;;5062417;28;38893;-51
2022/04/14 08:36:36;;;;;;;16.67;13.48;;;19.80;81.60;;;;;;5063314;28;38579;-53
2022/04/14 08:39:04;;;;;;;19.40;13.63;;;19.90;80.90;;;;;;5063903;28;37699;-52
2022/04/14 08:41:35;;;;;;;18.25;13.75;;;20.10;80.70;;;;;;5062747;28;39863;-52
2022/04/14 08:44:05;;;;;;;16.60;12.32;;;20.30;78.30;;;;;;5064196;28;39590;-57
2022/04/14 08:46:32;;;;;;;16.77;11.07;;;20.60;77.50;;;;;;5064872;28;37148;-58
2022/04/14 08:49:00;;;;;;;15.10;11.95;;;20.70;74.00;;;;;;5065752;28;39175;-58
2022/04/14 08:51:33;;;;;;;16.30;11.82;;;20.70;72.50;;;;;;5065448;28;37668;-58
2022/04/14 08:54:00;;;;;;;16.50;12.27;;;20.70;73.10;;;;;;5064714;28;38522;-58
2022/04/14 08:56:29;;;;;;;13.85;10.82;;;20.70;73.70;;;;;;5065071;28;40377;-58
2022/04/14 08:58:59;;;;;;;12.90;9.40;;;20.80;73.70;;;;;;5064420;28;36556;-58
2022/04/14 09:01:27;;;;;;;14.40;9.50;;;20.90;72.50;;;;;;5063847;28;36514;-58
2022/04/14 09:03:56;;;;;;;14.05;9.25;;;20.90;72.50;;;;;;5064531;28;37024;-58
2022/04/14 09:06:27;;;;;;;13.15;9.13;;;21.00;71.40;;;;;;5063848;28;37933;-58
2022/04/14 09:08:57;;;;;;;12.23;8.82;;;21.20;69.50;;;;;;5064606;28;35467;-58
2022/04/14 09:11:24;;;;;;;14.88;9.02;;;21.40;68.50;;;;;;5064313;28;37967;-58
2022/04/14 09:13:52;;;;;;;12.57;8.88;;;21.50;67.60;;;;;;5063891;28;38930;-58
2022/04/14 09:16:20;;;;;;;14.10;8.30;;;21.50;67.30;;;;;;5065085;28;36610;-58
2022/04/14 09:18:48;;;;;;;11.20;8.23;;;21.50;67.10;;;;;;5065123;28;37926;-58
2022/04/14 09:21:15;;;;;;;14.00;7.88;;;21.60;65.60;;;;;;5064193;28;37769;-58
2022/04/14 09:23:51;;;;;;;13.95;8.70;;;21.60;65.00;;;;;;5063889;28;38176;-58
2022/04/14 09:26:23;;;;;;;13.02;7.78;;;21.60;64.50;;;;;;5061139;28;38487;-58
2022/04/14 09:29:07;;;;;;;11.07;7.85;;;21.70;65.10;;;;;;5059737;28;37419;-58
2022/04/14 09:31:48;;;;;;;12.80;8.15;;;21.60;62.80;;;;;;5059944;28;38548;-52
2022/04/14 09:34:18;;;;;;;11.40;6.97;;;21.60;64.00;;;;;;5061408;28;36864;-54
2022/04/14 09:37:06;;;;;;;11.38;7.80;;;21.50;64.40;;;;;;5060525;28;38533;-53
2022/04/14 09:39:51;;;;;;;10.32;6.30;;;21.50;63.40;;;;;;5060986;28;37014;-52
2022/04/14 09:42:22;;;;;;;11.20;6.65;;;21.40;62.80;;;;;;5063699;28;37919;-51
2022/04/14 09:44:50;;;;;;;12.85;7.35;;;21.40;62.90;;;;;;5063482;28;38466;-52
2022/04/14 09:47:40;;;;;;;12.63;7.00;;;21.40;63.90;;;;;;5064184;28;38868;-52
2022/04/14 09:50:24;;;;;;;15.95;8.55;;;21.60;64.90;;;;;;5061426;28;35541;-58
2022/04/14 09:53:00;;;;;;;13.70;8.07;;;21.80;65.10;;;;;;5060599;28;38068;-58
2022/04/14 09:55:28;;;;;;;10.55;7.10;;;21.90;63.10;;;;;;5060244;28;38190;-58
2022/04/14 09:58:18;;;;;;;10.27;6.93;;;21.60;63.10;;;;;;5061157;28;38248;-58
2022/04/14 10:00:47;;;;;;;11.35;7.22;;;21.20;63.00;;;;;;5057731;28;36619;-58
2022/04/14 10:03:17;;;;;;;10.82;6.45;;;21.10;65.00;;;;;;5063238;28;38832;-59
2022/04/14 10:05:46;;;;;;;11.82;7.05;;;21.10;65.70;;;;;;5062933;28;38003;-58
2022/04/14 10:08:14;;;;;;;10.57;6.22;;;21.20;65.50;;;;;;5061096;28;38938;-58
2022/04/14 10:10:44;;;;;;;12.82;7.13;;;21.40;65.20;;;;;;5059831;28;36595;-58
2022/04/14 10:13:12;;;;;;;10.25;6.05;;;21.60;65.00;;;;;;5060185;28;38481;-58
2022/04/14 10:15:42;;;;;;;10.07;6.70;;;21.70;64.90;;;;;;5061376;28;38254;-58
2022/04/14 10:18:10;;;;;;;11.13;6.80;;;21.80;64.20;;;;;;5061539;28;40608;-58
2022/04/14 10:20:39;;;;;;;11.98;6.45;;;21.80;63.40;;;;;;5062097;28;36019;-53
2022/04/14 10:23:09;;;;;;;12.77;7.10;;;21.90;64.20;;;;;;5061374;28;38667;-53
2022/04/14 10:25:37;;;;;;;16.63;8.02;;;21.90;64.20;;;;;;5060264;28;38660;-53
2022/04/14 10:28:08;;;;;;;10.48;6.10;;;21.60;63.00;;;;;;5059982;28;37933;-53
2022/04/14 10:30:36;;;;;;;7.78;3.90;;;21.30;63.80;;;;;;5061498;28;37082;-54
2022/04/14 10:33:06;;;;;;;7.38;3.53;;;21.20;64.40;;;;;;5061191;28;38736;-53
2022/04/14 10:35:33;;;;;;;7.95;2.80;;;21.30;63.30;;;;;;5061012;28;38534;-54
2022/04/14 10:38:07;;;;;;;8.60;3.25;;;21.50;63.00;;;;;;5062005;28;36679;-52
2022/04/14 10:40:37;;;;;;;7.53;3.40;;;21.90;62.50;;;;;;5060994;28;38048;-54
2022/04/14 10:43:09;;;;;;;5.75;2.97;;;22.00;60.70;;;;;;5059377;28;37701;-53
2022/04/14 10:45:51;;;;;;;7.68;2.97;;;22.00;59.10;;;;;;5056169;28;37991;-53
2022/04/14 10:48:31;;;;;;;6.65;3.00;;;21.80;58.60;;;;;;5061307;28;37290;-52
2022/04/14 10:51:25;;;;;;;7.38;2.67;;;21.50;59.20;;;;;;5061449;28;37663;-53
2022/04/14 10:53:56;;;;;;;;;;;21.40;59.00;;;;;;5062156;28;37038;-58
2022/04/14 10:56:50;;;;;;;7.22;3.00;;;21.10;58.60;;;;;;5061187;28;38382;-58
2022/04/14 10:59:22;;;;;;;6.53;3.05;;;20.90;63.10;;;;;;5061564;28;37608;-58
2022/04/14 11:01:54;;;;;;;7.88;3.88;;;21.00;61.50;;;;;;5059433;28;37394;-58
2022/04/14 11:04:27;;;;;;;7.05;3.15;;;21.20;61.80;;;;;;5060758;28;37036;-58
2022/04/14 11:06:57;;;;;;;4.70;1.70;;;21.20;62.30;;;;;;5060420;28;37183;-58
2022/04/14 11:09:53;;;;;;;6.07;1.60;;;21.30;61.10;;;;;;5061634;28;39810;-58
2022/04/14 11:12:23;;;;;;;7.85;2.92;;;21.50;59.90;;;;;;5061803;28;36519;-58
2022/04/14 11:14:52;;;;;;;8.82;3.42;;;21.70;60.10;;;;;;5061211;28;35301;-57
2022/04/14 11:17:57;;;;;;;8.00;3.40;;;21.60;59.50;;;;;;5061344;28;39228;-58
2022/04/14 11:20:53;;;;;;;6.80;3.10;;;21.40;57.80;;;;;;5060438;28;39557;-58
2022/04/14 11:23:24;;;;;;;4.50;2.30;;;21.20;58.00;;;;;;5061499;28;37350;-58
2022/04/14 11:25:52;;;;;;;7.82;2.78;;;21.20;59.20;;;;;;5063199;28;36460;-58
2022/04/14 11:28:25;;;;;;;7.93;3.13;;;21.20;58.60;;;;;;5063983;28;38301;-58
2022/04/14 11:30:55;;;;;;;6.65;2.90;;;21.20;59.20;;;;;;5064704;28;39602;-58
2022/04/14 11:33:27;;;;;;;6.68;3.25;;;21.20;58.60;;;;;;5062801;28;35596;-58
2022/04/14 11:36:08;;;;;;;5.83;3.07;;;21.10;59.20;;;;;;5063976;28;37623;-58
2022/04/14 11:39:06;;;;;;;7.20;3.45;;;21.10;59.30;;;;;;5063148;28;38160;-58
2022/04/14 11:41:41;;;;;;;7.40;2.95;;;21.00;59.60;;;;;;5000070;28;38236;-58
2022/04/14 11:44:11;;;;;;;10.65;4.82;;;20.90;60.20;;;;;;5052363;28;37646;-58
2022/04/14 11:46:41;;;;;;;10.02;4.10;;;20.90;60.80;;;;;;5064835;28;37713;-58
2022/04/14 11:49:10;;;;;;;10.60;4.30;;;20.80;61.00;;;;;;5064801;28;38117;-57
2022/04/14 11:51:47;;;;;;;8.75;3.90;;;20.60;61.70;;;;;;5064596;28;37835;-58
2022/04/14 11:54:23;;;;;;;7.55;4.10;;;20.60;62.50;;;;;;5064764;28;37098;-58
2022/04/14 11:56:52;;;;;;;14.68;5.22;;;20.60;61.80;;;;;;5064773;28;37037;-57
2022/04/14 11:59:29;;;;;;;10.07;4.20;;;20.50;62.80;;;;;;5064785;28;36845;-58
2022/04/14 12:02:00;;;;;;;8.77;4.15;;;20.30;64.10;;;;;;5063647;28;39597;-58
2022/04/14 12:04:27;;;;;;;8.95;4.25;;;20.30;64.50;;;;;;5063595;28;36419;-59
2022/04/14 12:06:59;;;;;;;9.48;4.43;;;20.20;65.00;;;;;;5063346;28;37513;-58
2022/04/14 12:09:26;;;;;;;11.27;4.10;;;20.20;65.40;;;;;;5063683;28;38766;-58
2022/04/14 12:11:54;;;;;;;7.45;2.95;;;20.20;66.50;;;;;;5064240;28;37653;-58
2022/04/14 12:14:22;;;;;;;7.30;3.10;;;20.20;66.60;;;;;;5064287;28;36766;-57
2022/04/14 12:16:51;;;;;;;7.95;3.38;;;20.10;66.20;;;;;;5064247;28;36952;-58
2022/04/14 12:19:18;;;;;;;8.05;3.10;;;20.10;66.80;;;;;;5062095;28;37634;-58
2022/04/14 12:22:01;;;;;;;6.65;2.70;;;20.10;67.20;;;;;;5062977;28;38561;-58
2022/04/14 12:24:29;;;;;;;9.02;2.75;;;20.10;67.30;;;;;;5062461;28;36955;-58
2022/04/14 12:26:58;;;;;;;8.52;2.70;;;20.00;67.20;;;;;;5061371;28;37145;-58
2022/04/14 12:29:25;;;;;;;8.55;3.13;;;19.90;67.80;;;;;;5062987;28;38575;-58
2022/04/14 12:31:58;;;;;;;6.93;3.08;;;19.70;66.90;;;;;;5064139;28;37895;-58
2022/04/14 12:34:25;;;;;;;9.40;3.35;;;19.60;66.50;;;;;;5062817;28;36605;-58
2022/04/14 12:37:09;;;;;;;10.52;3.55;;;19.40;67.40;;;;;;5064441;28;37451;-57
2022/04/14 12:39:37;;;;;;;11.82;4.43;;;19.30;68.90;;;;;;5064489;28;38396;-52
2022/04/14 12:42:15;;;;;;;9.93;3.53;;;19.20;70.10;;;;;;5063745;28;37555;-58
2022/04/14 12:44:45;;;;;;;6.38;2.95;;;19.10;70.10;;;;;;5062959;28;36299;-58